Terminal Aerodrome Forecast
Issued by NWS Bismarck, ND

Home | Current Version | Previous Version | Graphics & Text | Print | Product List | Glossary On
Versions: 1 2 3 4 5 6 7 8 9 10 11 12 13 14 15 16 17 18 19 20 21 22 23 24 25 26 27
000
FTUS43 KBIS 251704 AAD
TAFBIS
TAF AMD
KBIS 251704Z 2517/2612 31004KT P6SM VCSH SCT012 OVC030
      TEMPO 2517/2518 1SM -SN BKN012
     FM260200 16007KT P6SM VCSH BKN025
     FM260400 21005KT 5SM -SN OVC020
     FM260900 34012G20KT P6SM SCT015=

USA.gov is the U.S. government's official web portal to all federal, state and local government web resources and services.